Time;durP1;ratioP1;P1;durP2;ratioP2;P2;SDS_P1;SDS_P2;PMS_P1;PMS_P2;Temp;Humidity;BMP_temperature;BMP_pressure;BME280_temperature;BME280_humidity;BME280_pressure;Samples;Min_cycle;Max_cycle;Signal;HPM_P1;HPM_P2
2024/03/21 00:01:00;;;;;;;;;26.00;18.00;;;;;2.23;89.43;101073.55;111528;255;40290;-54
2024/03/21 00:03:53;;;;;;;;;19.50;14.50;;;;;2.10;89.55;101076.53;111417;255;160814;-56
2024/03/21 00:06:33;;;;;;;;;16.67;14.00;;;;;2.03;89.47;101078.29;110934;255;40300;-56
2024/03/21 00:09:16;;;;;;;;;18.50;14.00;;;;;1.90;89.39;101075.56;111601;255;40303;-55
2024/03/21 00:12:01;;;;;;;;;21.00;15.00;;;;;1.82;89.37;101071.95;111387;255;39285;-54
2024/03/21 00:14:41;;;;;;;;;16.00;12.50;;;;;1.75;89.60;101071.05;111466;255;39881;-55
2024/03/21 00:17:24;;;;;;;;;18.00;14.50;;;;;1.71;89.54;101069.41;111423;241;161385;-55
2024/03/21 00:20:00;;;;;;;;;23.00;16.50;;;;;1.65;89.70;101066.86;111461;255;39487;-54
2024/03/21 00:22:45;;;;;;;;;24.00;18.00;;;;;1.60;89.78;101067.77;111467;242;161455;-55
2024/03/21 00:25:21;;;;;;;;;28.00;20.00;;;;;1.64;89.95;101063.59;111480;255;39989;-55
2024/03/21 00:27:56;;;;;;;;;21.00;16.00;;;;;1.56;90.02;101064.17;111384;241;162232;-54
2024/03/21 00:30:35;;;;;;;;;24.00;16.00;;;;;1.46;90.07;101064.22;111470;255;39965;-55
2024/03/21 00:33:16;;;;;;;;;25.00;18.00;;;;;1.44;90.26;101058.87;111460;255;39322;-56
2024/03/21 00:35:51;;;;;;;;;22.00;17.00;;;;;1.42;90.24;101056.33;111212;256;39794;-57
2024/03/21 00:38:27;;;;;;;;;19.00;15.00;;;;;1.46;90.16;101057.16;111508;256;40893;-54
2024/03/21 00:41:06;;;;;;;;;28.00;17.75;;;;;1.46;90.62;101058.91;111173;243;161410;-54
2024/03/21 00:43:42;;;;;;;;;23.00;17.00;;;;;1.44;90.42;101059.57;111505;256;39972;-57
2024/03/21 00:46:25;;;;;;;;;19.25;15.25;;;;;1.42;90.38;101057.99;111197;242;161317;-57
2024/03/21 00:49:01;;;;;;;;;27.00;20.00;;;;;1.37;90.33;101056.63;111481;255;39724;-55
2024/03/21 00:51:39;;;;;;;;;22.00;16.25;;;;;1.27;90.28;101060.70;111312;241;162535;-55
2024/03/21 00:54:20;;;;;;;;;20.00;16.00;;;;;1.22;90.29;101063.02;111508;255;40988;-55
2024/03/21 00:56:58;;;;;;;;;21.00;16.00;;;;;1.13;90.34;101062.67;111502;255;39630;-55
2024/03/21 00:59:45;;;;;;;;;20.00;14.00;;;;;1.04;90.19;101061.02;111392;241;160532;-55
2024/03/21 01:02:22;;;;;;;;;24.25;16.00;;;;;0.93;90.16;101058.45;111500;255;39996;-55
2024/03/21 01:04:59;;;;;;;;;26.50;17.75;;;;;0.86;90.21;101055.98;111396;241;161581;-55
2024/03/21 01:07:39;;;;;;;;;21.00;16.00;;;;;0.81;90.30;101053.11;111550;255;40040;-54
2024/03/21 01:10:13;;;;;;;;;21.25;16.50;;;;;0.77;90.50;101051.81;111408;241;161441;-54
2024/03/21 01:12:48;;;;;;;;;27.75;20.75;;;;;0.78;90.62;101047.20;111528;255;41535;-57
2024/03/21 01:15:28;;;;;;;;;25.00;18.00;;;;;0.77;90.79;101046.52;111390;241;162912;-56
2024/03/21 01:18:07;;;;;;;;;28.00;19.00;;;;;0.86;90.86;101042.32;111512;255;40370;-52
2024/03/21 01:20:42;;;;;;;;;31.67;20.33;;;;;0.92;91.31;101043.46;111439;255;40351;-53
2024/03/21 01:23:24;;;;;;;;;28.00;19.00;;;;;0.98;91.46;101040.02;111431;241;161538;-53
2024/03/21 01:26:01;;;;;;;;;26.33;20.67;;;;;1.10;91.92;101035.02;111443;255;39258;-53
2024/03/21 01:28:41;;;;;;;;;29.75;23.00;;;;;1.25;92.24;101029.61;111390;241;162454;-53
2024/03/21 01:31:20;;;;;;;;;30.00;23.00;;;;;1.34;92.35;101022.20;111416;255;41662;-53
2024/03/21 01:34:04;;;;;;;;;35.00;24.00;;;;;1.47;92.79;101016.05;111357;241;161880;-54
2024/03/21 01:36:47;;;;;;;;;29.00;22.00;;;;;1.62;93.35;101014.91;111465;255;39941;-52
2024/03/21 01:39:32;;;;;;;;;28.50;22.00;;;;;1.77;93.71;101009.13;111370;241;161715;-56
2024/03/21 01:42:17;;;;;;;;;37.00;26.00;;;;;1.84;93.26;101004.90;111423;255;40153;-56
2024/03/21 01:45:05;;;;;;;;;32.33;23.00;;;;;1.89;93.42;101003.20;111508;255;40669;-55
2024/03/21 01:47:44;;;;;;;;;28.50;22.00;;;;;1.90;93.24;100998.88;111551;241;161372;-58
2024/03/21 01:50:25;;;;;;;;;31.00;21.00;;;;;1.94;93.32;100997.89;111548;255;39739;-58
2024/03/21 01:53:05;;;;;;;;;31.00;23.00;;;;;1.98;93.36;100995.06;111484;241;161410;-58
2024/03/21 01:55:51;;;;;;;;;24.67;17.00;;;;;2.06;94.07;100994.74;111485;255;41256;-58
2024/03/21 01:58:30;;;;;;;;;26.75;19.25;;;;;2.12;93.82;100987.38;111445;241;161728;-58
2024/03/21 02:01:30;;;;;;;;;25.25;18.00;;;;;2.12;93.77;100990.88;111507;255;39865;-58
2024/03/21 02:04:05;;;;;;;;;32.00;24.00;;;;;2.15;93.78;100987.66;111388;255;161918;-55
2024/03/21 02:06:43;;;;;;;;;31.00;24.00;;;;;2.16;94.02;100985.66;111497;255;40450;-55
2024/03/21 02:09:27;;;;;;;;;31.00;23.00;;;;;2.19;93.83;100986.81;111429;255;40159;-54
2024/03/21 02:12:11;;;;;;;;;35.33;25.33;;;;;2.20;93.74;100989.41;111198;256;40340;-55
2024/03/21 02:14:51;;;;;;;;;29.00;22.00;;;;;2.20;93.67;100991.00;111513;256;41379;-58
2024/03/21 02:17:31;;;;;;;;;35.25;25.00;;;;;2.19;93.61;100990.90;111434;241;161546;-55
2024/03/21 02:20:13;;;;;;;;;35.50;25.50;;;;;2.14;93.50;100995.35;111466;255;39433;-54
2024/03/21 02:22:53;;;;;;;;;25.33;18.67;;;;;2.13;93.51;100997.08;111304;243;161580;-55
2024/03/21 02:25:35;;;;;;;;;30.00;22.00;;;;;2.11;93.32;100996.30;111429;256;40771;-54
2024/03/21 02:28:13;;;;;;;;;32.00;24.00;;;;;2.06;93.18;100997.48;111391;241;162107;-55
2024/03/21 02:30:50;;;;;;;;;29.00;22.25;;;;;1.94;93.00;100997.52;111544;255;39732;-55
2024/03/21 02:33:27;;;;;;;;;24.00;19.00;;;;;1.83;93.04;101000.36;111390;243;161684;-55
2024/03/21 02:36:09;;;;;;;;;30.00;21.00;;;;;1.70;92.92;101001.45;111496;256;40441;-55
2024/03/21 02:38:46;;;;;;;;;32.25;24.00;;;;;1.63;93.03;100996.52;111582;256;40127;-55
2024/03/21 02:41:25;;;;;;;;;22.50;16.50;;;;;1.51;92.94;100997.84;111491;241;160945;-55
2024/03/21 02:44:08;;;;;;;;;28.00;20.00;;;;;1.47;92.79;101001.00;111561;255;39839;-55
2024/03/21 02:46:51;;;;;;;;;34.00;23.50;;;;;1.45;92.96;101000.45;111364;243;162768;-54
2024/03/21 02:49:30;;;;;;;;;26.00;19.50;;;;;1.46;93.11;101003.04;111451;256;40141;-56
2024/03/21 02:52:11;;;;;;;;;38.00;28.00;;;;;1.50;93.29;100995.63;111359;241;161533;-56
2024/03/21 02:54:53;;;;;;;;;36.33;26.00;;;;;1.53;93.89;100995.38;111522;255;39951;-58
2024/03/21 02:57:36;;;;;;;;;29.00;22.00;;;;;1.64;93.85;101000.19;111380;243;161885;-56
2024/03/21 03:00:14;;;;;;;;;38.00;26.67;;;;;1.74;94.30;100998.37;111323;256;41241;-55
2024/03/21 03:02:58;;;;;;;;;35.33;26.67;;;;;1.77;94.05;101000.08;111494;256;39584;-55
2024/03/21 03:05:47;;;;;;;;;31.75;23.00;;;;;1.79;94.15;100995.48;111454;241;161523;-55
2024/03/21 03:08:29;;;;;;;;;35.00;26.00;;;;;1.80;94.10;100999.32;111523;255;39838;-55
2024/03/21 03:11:06;;;;;;;;;32.00;23.00;;;;;1.74;93.99;100995.31;111298;243;162131;-53
2024/03/21 03:13:46;;;;;;;;;27.00;20.67;;;;;1.70;93.96;100995.60;111462;256;40467;-52
2024/03/21 03:16:25;;;;;;;;;29.50;23.00;;;;;1.70;93.87;100996.67;111159;243;161823;-52
2024/03/21 03:19:05;;;;;;;;;30.75;22.00;;;;;1.70;94.19;100993.33;111522;255;39859;-54
2024/03/21 03:21:39;;;;;;;;;29.00;20.67;;;;;1.65;94.05;100996.34;111362;242;161611;-54
2024/03/21 03:24:16;;;;;;;;;34.00;25.00;;;;;1.57;93.83;100996.64;111502;256;40556;-56
2024/03/21 03:26:52;;;;;;;;;34.67;24.00;;;;;1.51;93.72;100989.86;111531;256;41081;-56
2024/03/21 03:29:26;;;;;;;;;29.25;22.00;;;;;1.46;94.09;100992.52;111503;246;161606;-54
2024/03/21 03:32:08;;;;;;;;;33.50;25.00;;;;;1.48;94.37;100994.34;111497;255;39828;-54
2024/03/21 03:37:40;;;;;;;;;32.75;23.00;;;;;1.62;94.57;100985.58;111545;255;40101;-53
2024/03/21 03:40:15;;;;;;;;;32.33;24.00;;;;;1.65;94.63;100983.80;111365;244;161699;-55
2024/03/21 03:42:49;;;;;;;;;28.25;19.00;;;;;1.69;94.77;100980.98;111499;255;39201;-53
2024/03/21 03:45:24;;;;;;;;;36.00;26.00;;;;;1.68;94.77;100975.52;111430;255;39766;-54
2024/03/21 03:48:05;;;;;;;;;33.00;22.00;;;;;1.69;94.76;100973.02;111242;256;40158;-54
2024/03/21 03:50:41;;;;;;;;;33.00;24.67;;;;;1.70;94.72;100974.10;111421;256;39398;-54
2024/03/21 03:53:21;;;;;;;;;32.00;22.00;;;;;1.73;94.86;100971.22;111386;241;161491;-54
2024/03/21 03:55:59;;;;;;;;;29.25;22.00;;;;;1.74;94.77;100974.20;111425;255;39544;-53
2024/03/21 03:58:38;;;;;;;;;34.00;24.00;;;;;1.72;94.63;100977.41;111314;243;161863;-54
2024/03/21 04:01:18;;;;;;;;;34.00;23.50;;;;;1.72;94.66;100977.15;111388;255;40145;-54
2024/03/21 04:03:56;;;;;;;;;34.00;23.00;;;;;1.73;94.61;100975.66;111395;241;161854;-53
2024/03/21 04:06:39;;;;;;;;;33.33;23.00;;;;;1.71;94.74;100979.37;111489;255;38920;-54
2024/03/21 04:09:18;;;;;;;;;38.00;26.25;;;;;1.72;94.99;100977.77;111476;255;41287;-53
2024/03/21 04:11:55;;;;;;;;;33.00;22.00;;;;;1.73;94.99;100983.34;111263;243;41704;-55
2024/03/21 04:14:33;;;;;;;;;33.00;24.33;;;;;1.78;95.23;100979.90;111514;256;39017;-53
2024/03/21 04:17:12;;;;;;;;;36.75;24.00;;;;;1.82;95.20;100985.16;111474;255;161389;-52
2024/03/21 04:19:50;;;;;;;;;41.33;28.33;;;;;1.86;95.19;100986.23;111505;255;41436;-53
2024/03/21 04:22:28;;;;;;;;;37.00;24.00;;;;;1.88;95.10;100992.27;111407;241;161208;-53
2024/03/21 04:25:07;;;;;;;;;33.00;24.00;;;;;1.91;95.14;100996.54;111502;255;39961;-53
2024/03/21 04:27:53;;;;;;;;;34.67;24.67;;;;;1.87;95.10;100995.89;111402;243;162932;-56
2024/03/21 04:30:33;;;;;;;;;33.00;24.33;;;;;1.82;94.99;100997.55;111425;256;40357;-56
2024/03/21 04:33:10;;;;;;;;;37.67;25.00;;;;;1.82;95.08;100999.31;111463;256;39625;-54
2024/03/21 04:35:49;;;;;;;;;26.25;20.75;;;;;1.87;95.18;101002.52;111438;255;161725;-54
2024/03/21 04:38:24;;;;;;;;;33.00;25.00;;;;;1.94;95.32;101003.56;111433;255;40598;-54
2024/03/21 04:40:58;;;;;;;;;35.00;27.00;;;;;1.94;94.99;101005.72;111293;243;162103;-53
2024/03/21 04:43:39;;;;;;;;;27.25;21.50;;;;;1.91;94.86;101005.05;111469;256;39567;-56
2024/03/21 04:46:14;;;;;;;;;31.00;23.00;;;;;1.84;95.01;101005.77;111325;241;161898;-55
2024/03/21 04:48:50;;;;;;;;;38.00;25.00;;;;;1.80;94.95;101006.40;111495;255;39616;-52
2024/03/21 04:51:25;;;;;;;;;32.75;23.50;;;;;1.85;94.94;101007.30;111483;254;39532;-52
2024/03/21 04:54:10;;;;;;;;;30.00;23.00;;;;;1.88;94.87;101005.10;111527;254;40234;-57
2024/03/21 04:56:48;;;;;;;;;27.00;20.50;;;;;1.89;94.95;101009.45;111519;254;39753;-56
2024/03/21 04:59:25;;;;;;;;;32.00;22.00;;;;;1.91;94.97;101007.55;111451;241;161506;-52
2024/03/21 05:02:05;;;;;;;;;37.25;27.00;;;;;1.90;94.82;101008.86;111522;255;39229;-52
2024/03/21 05:04:46;;;;;;;;;38.33;26.00;;;;;1.88;94.75;101009.71;111392;245;161689;-52
2024/03/21 05:07:23;;;;;;;;;34.00;25.00;;;;;1.92;95.04;101004.58;111312;256;40665;-52
2024/03/21 05:10:02;;;;;;;;;39.00;28.50;;;;;1.96;95.63;100999.85;111295;255;161698;-56
2024/03/21 05:12:40;;;;;;;;;36.00;25.00;;;;;2.02;95.24;101000.39;111483;255;42029;-54
2024/03/21 05:15:20;;;;;;;;;32.67;23.33;;;;;2.07;95.21;101000.23;111407;255;40067;-53
2024/03/21 05:18:03;;;;;;;;;32.00;23.50;;;;;2.11;95.20;100998.46;111432;241;161501;-53
2024/03/21 05:20:45;;;;;;;;;32.00;22.50;;;;;2.29;95.52;100996.11;111428;254;41271;-53
2024/03/21 05:23:28;;;;;;;;;36.00;27.00;;;;;2.48;95.56;100995.70;111379;241;161513;-54
2024/03/21 05:26:08;;;;;;;;;31.00;23.00;;;;;2.64;95.48;100996.52;111523;255;39444;-53
2024/03/21 05:28:46;;;;;;;;;33.00;23.00;;;;;2.78;95.37;100994.96;111404;241;162645;-56
2024/03/21 05:31:26;;;;;;;;;33.00;24.00;;;;;2.92;95.44;100997.15;111450;255;39471;-56
2024/03/21 05:34:03;;;;;;;;;38.00;26.00;;;;;3.09;95.30;100997.36;111424;242;161433;-54
2024/03/21 05:36:39;;;;;;;;;30.25;20.25;;;;;3.30;95.19;100992.91;111498;255;40186;-53
2024/03/21 05:39:22;;;;;;;;;34.00;25.00;;;;;3.47;95.12;100992.54;111505;255;40421;-54
2024/03/21 05:42:07;;;;;;;;;39.00;27.00;;;;;3.61;95.03;100990.47;111466;243;40413;-54
2024/03/21 05:44:48;;;;;;;;;40.75;29.50;;;;;3.80;94.86;100990.64;111557;255;39532;-52
2024/03/21 05:47:26;;;;;;;;;44.00;31.67;;;;;3.94;94.72;100996.85;111598;241;160937;-53
2024/03/21 05:50:04;;;;;;;;;39.67;27.00;;;;;4.07;94.50;100994.62;111487;255;40351;-54
2024/03/21 05:52:43;;;;;;;;;34.00;23.00;;;;;4.19;94.48;100993.56;111434;241;161223;-55
2024/03/21 05:55:19;;;;;;;;;35.33;26.00;;;;;4.59;94.31;100991.85;111496;255;39444;-54
2024/03/21 05:58:04;;;;;;;;;42.00;29.50;;;;;6.08;94.63;100994.86;111390;255;161702;-53
2024/03/21 06:00:46;;;;;;;;;37.00;27.50;;;;;7.76;93.91;100991.54;111528;255;40215;-53
2024/03/21 06:03:27;;;;;;;;;42.00;28.00;;;;;8.27;91.12;100995.31;111204;256;39329;-53
2024/03/21 06:06:03;;;;;;;;;45.25;33.75;;;;;7.78;90.04;100993.11;111151;257;40544;-53
2024/03/21 06:08:42;;;;;;;;;39.00;28.00;;;;;7.55;89.69;100990.61;111234;256;39218;-53
2024/03/21 06:11:23;;;;;;;;;39.67;28.00;;;;;7.52;88.84;100993.58;111221;243;160924;-53
2024/03/21 06:13:57;;;;;;;;;43.00;32.00;;;;;7.53;88.58;100989.95;111225;256;39924;-55
2024/03/21 06:16:39;;;;;;;;;38.67;29.00;;;;;7.60;87.65;100995.86;111127;243;160878;-54
2024/03/21 06:19:17;;;;;;;;;45.00;32.67;;;;;7.43;87.27;100997.95;111245;257;40628;-54
2024/03/21 06:22:00;;;;;;;;;43.50;33.00;;;;;7.32;87.37;101000.83;111095;243;161300;-54
2024/03/21 06:24:41;;;;;;;;;44.00;30.00;;;;;7.37;86.90;101010.24;111363;256;39659;-54
2024/03/21 06:27:20;;;;;;;;;45.00;32.50;;;;;7.46;86.68;101009.69;111189;256;39862;-54
2024/03/21 06:29:58;;;;;;;;;39.00;29.00;;;;;7.63;86.52;101008.85;111216;243;160503;-54
2024/03/21 06:32:34;;;;;;;;;39.00;28.33;;;;;7.92;86.19;101008.19;111220;256;39723;-53
2024/03/21 06:35:13;;;;;;;;;38.50;28.50;;;;;8.02;85.16;101005.72;111234;243;161289;-52
2024/03/21 06:37:53;;;;;;;;;31.33;23.00;;;;;8.01;84.64;101001.08;111263;256;40146;-56
2024/03/21 06:40:29;;;;;;;;;38.00;29.00;;;;;8.32;84.23;100999.36;111159;243;160332;-56
2024/03/21 06:43:08;;;;;;;;;38.67;29.33;;;;;8.55;84.14;100992.23;111304;256;39711;-56
2024/03/21 06:45:48;;;;;;;;;35.00;28.00;;;;;8.82;83.54;100990.95;111105;243;161488;-56
2024/03/21 06:48:27;;;;;;;;;41.00;29.00;;;;;9.47;81.62;100985.09;111387;256;39700;-52
2024/03/21 06:51:07;;;;;;;;;37.00;28.00;;;;;10.10;81.76;100986.67;111152;257;39862;-54
2024/03/21 06:53:48;;;;;;;;;32.33;24.33;;;;;10.42;81.10;100985.16;111080;256;161130;-56
2024/03/21 06:56:29;;;;;;;;;43.67;31.00;;;;;10.23;79.42;100990.00;111205;256;40293;-55
2024/03/21 06:59:04;;;;;;;;;40.00;30.67;;;;;10.07;79.40;100989.64;111102;243;161339;-58
2024/03/21 07:01:42;;;;;;;;;38.00;28.00;;;;;9.94;78.01;100994.86;111257;255;39329;-58
2024/03/21 07:04:26;;;;;;;;;37.00;27.00;;;;;9.69;77.14;100999.03;111377;241;161011;-54
2024/03/21 07:07:08;;;;;;;;;32.00;23.50;;;;;9.77;77.59;100998.48;111483;255;39505;-55
2024/03/21 07:09:49;;;;;;;;;32.00;24.00;;;;;10.63;77.91;100999.13;111432;241;161346;-58
2024/03/21 07:12:25;;;;;;;;;41.00;29.33;;;;;11.67;76.11;100999.15;111526;255;40759;-56
2024/03/21 07:15:04;;;;;;;;;31.50;23.50;;;;;12.03;75.07;100999.90;111464;255;39324;-58
2024/03/21 07:17:48;;;;;;;;;35.00;27.50;;;;;12.00;73.77;100996.23;111527;241;162332;-56
2024/03/21 07:20:24;;;;;;;;;37.00;27.25;;;;;11.80;73.21;100997.30;111504;255;40464;-55
2024/03/21 07:23:04;;;;;;;;;38.00;29.00;;;;;11.51;73.36;100995.85;111512;241;161561;-55
2024/03/21 07:25:45;;;;;;;;;37.00;27.50;;;;;11.98;73.35;101001.48;111474;255;39872;-54
2024/03/21 07:28:25;;;;;;;;;38.00;29.00;;;;;12.32;72.53;100997.90;111409;241;161538;-54
2024/03/21 07:31:02;;;;;;;;;37.00;29.00;;;;;12.77;71.93;100999.43;111515;255;41384;-54
2024/03/21 07:33:42;;;;;;;;;38.00;29.00;;;;;12.86;70.60;100998.71;111399;255;161237;-54
2024/03/21 07:36:23;;;;;;;;;34.00;26.75;;;;;13.16;69.28;101001.06;111486;255;39308;-54
2024/03/21 07:39:06;;;;;;;;;35.00;26.00;;;;;13.46;67.42;100995.98;111420;255;40173;-56
2024/03/21 07:41:48;;;;;;;;;31.00;23.00;;;;;13.40;67.19;100995.29;111395;241;161871;-57
2024/03/21 07:44:28;;;;;;;;;34.00;26.00;;;;;13.62;66.23;100990.23;111459;255;39291;-55
2024/03/21 07:47:06;;;;;;;;;32.33;24.00;;;;;14.43;67.22;100982.81;111356;241;161238;-54
2024/03/21 07:49:41;;;;;;;;;35.50;28.00;;;;;14.78;65.33;100978.80;111516;255;39985;-54
2024/03/21 07:52:24;;;;;;;;;33.67;26.00;;;;;14.49;64.51;100978.98;111397;241;161514;-55
2024/03/21 07:55:05;;;;;;;;;27.75;22.00;;;;;14.58;62.44;100977.65;111474;255;39956;-58
2024/03/21 07:57:43;;;;;;;;;30.33;23.67;;;;;14.55;62.27;100976.50;111369;241;162102;-59
2024/03/21 08:00:19;;;;;;;;;36.00;27.00;;;;;15.35;62.87;100964.16;111521;255;41173;-57
2024/03/21 08:02:56;;;;;;;;;37.50;28.00;;;;;16.10;62.75;100961.16;111476;255;39785;-57
2024/03/21 08:05:33;;;;;;;;;35.50;27.50;;;;;16.20;63.03;100959.30;110650;241;765658;-58
2024/03/21 08:08:19;;;;;;;;;34.67;27.00;;;;;16.34;59.34;100960.52;111557;254;40329;-57
2024/03/21 08:10:59;;;;;;;;;34.00;27.00;;;;;16.68;58.46;100953.88;111487;241;161692;-58
2024/03/21 08:13:41;;;;;;;;;39.00;29.00;;;;;17.00;59.05;100956.58;111501;255;40328;-56
2024/03/21 08:16:21;;;;;;;;;32.75;24.75;;;;;17.43;58.75;100946.30;111357;241;162110;-55
2024/03/21 08:18:57;;;;;;;;;31.00;25.00;;;;;17.34;57.46;100949.95;111560;255;41020;-57
2024/03/21 08:21:34;;;;;;;;;34.00;26.75;;;;;17.95;56.41;100947.37;111476;255;41398;-59
2024/03/21 08:24:08;;;;;;;;;29.00;22.75;;;;;18.21;55.41;100945.54;111418;255;39644;-54
2024/03/21 08:26:47;;;;;;;;;28.33;21.33;;;;;18.08;52.50;100948.65;111474;255;40025;-54
2024/03/21 08:29:25;;;;;;;;;33.67;26.00;;;;;17.61;52.36;100944.67;111387;242;161474;-53
2024/03/21 08:32:12;;;;;;;;;27.00;22.75;;;;;17.92;54.15;100948.20;111440;255;39808;-52
2024/03/21 08:34:50;;;;;;;;;30.00;24.75;;;;;18.75;53.69;100948.01;111422;241;161441;-56
2024/03/21 08:37:29;;;;;;;;;31.00;26.00;;;;;19.09;53.09;100939.95;111505;255;40332;-54
2024/03/21 08:40:09;;;;;;;;;28.00;23.00;;;;;18.99;51.34;100931.00;111352;241;161491;-54
2024/03/21 08:42:47;;;;;;;;;26.00;22.00;;;;;18.77;48.55;100934.93;111512;255;41064;-53
2024/03/21 08:45:23;;;;;;;;;27.50;23.00;;;;;18.55;50.53;100935.08;111427;255;41333;-53
2024/03/21 08:48:04;;;;;;;;;23.00;19.50;;;;;18.44;49.85;100936.38;111357;241;161180;-55
2024/03/21 08:50:47;;;;;;;;;28.75;24.50;;;;;17.83;49.44;100938.20;111426;255;40736;-54
2024/03/21 08:53:23;;;;;;;;;34.00;25.00;;;;;17.97;50.15;100935.16;111376;255;161945;-53
2024/03/21 08:56:04;;;;;;;;;28.00;22.00;;;;;18.02;51.46;100937.30;111319;256;40524;-52
2024/03/21 08:58:44;;;;;;;;;24.50;20.00;;;;;17.79;50.93;100943.55;111386;241;161404;-56
2024/03/21 09:01:23;;;;;;;;;24.00;18.00;;;;;17.64;51.31;100942.71;111553;255;40678;-56
2024/03/21 09:04:01;;;;;;;;;34.67;25.00;;;;;17.86;51.48;100940.01;111406;241;161619;-53
2024/03/21 09:06:39;;;;;;;;;25.00;20.00;;;;;18.33;51.97;100941.58;111241;256;42070;-53
2024/03/21 09:09:21;;;;;;;;;30.50;25.00;;;;;18.57;51.75;100943.23;111477;255;38967;-55
2024/03/21 09:12:04;;;;;;;;;30.25;25.00;;;;;18.42;50.81;100942.48;111337;241;161693;-55
2024/03/21 09:14:39;;;;;;;;;29.00;24.00;;;;;18.09;49.77;100944.64;111528;255;40828;-55
2024/03/21 09:17:18;;;;;;;;;24.00;19.00;;;;;17.97;48.22;100943.75;111346;241;162565;-54
2024/03/21 09:19:59;;;;;;;;;26.00;19.00;;;;;17.70;49.50;100943.96;111407;256;40216;-54
2024/03/21 09:22:36;;;;;;;;;25.00;21.00;;;;;17.71;48.28;100941.58;111327;241;161546;-56
2024/03/21 09:25:12;;;;;;;;;22.67;19.33;;;;;17.40;47.99;100939.64;111484;255;39011;-56
2024/03/21 09:27:49;;;;;;;;;32.50;25.75;;;;;17.43;48.04;100940.86;111250;241;162178;-56
2024/03/21 09:30:28;;;;;;;;;29.75;24.25;;;;;17.34;48.09;100938.59;111462;256;39320;-56
2024/03/21 09:33:10;;;;;;;;;25.00;21.00;;;;;17.43;47.63;100932.63;111505;255;38955;-53
2024/03/21 09:35:58;;;;;;;;;29.75;24.50;;;;;17.37;48.15;100932.21;111279;241;161781;-53
2024/03/21 09:38:36;;;;;;;;;29.50;24.75;;;;;17.61;47.21;100937.15;111483;255;40556;-55
2024/03/21 09:41:17;;;;;;;;;29.00;23.00;;;;;17.16;47.56;100933.32;111276;241;161569;-57
2024/03/21 09:44:00;;;;;;;;;28.50;23.00;;;;;17.08;46.99;100937.84;111500;254;39397;-54
2024/03/21 09:46:39;;;;;;;;;28.00;22.00;;;;;16.73;46.82;100937.14;111376;241;161405;-53
2024/03/21 09:49:16;;;;;;;;;33.00;26.00;;;;;16.37;47.86;100930.02;111571;256;40026;-52
2024/03/21 09:51:52;;;;;;;;;28.00;23.75;;;;;16.28;47.60;100928.23;111430;255;161550;-52
2024/03/21 09:54:30;;;;;;;;;28.00;20.00;;;;;15.77;47.00;100920.61;111524;255;40366;-53
2024/03/21 09:57:06;;;;;;;;;31.00;23.50;;;;;15.34;47.94;100923.45;111466;255;41109;-54
2024/03/21 09:59:41;;;;;;;;;28.00;23.00;;;;;15.07;48.83;100916.39;111332;241;161551;-55
2024/03/21 10:02:22;;;;;;;;;29.00;23.33;;;;;14.95;48.77;100920.21;111417;256;39348;-55
2024/03/21 10:04:57;;;;;;;;;32.00;24.00;;;;;14.87;49.06;100914.59;111338;241;162266;-54
2024/03/21 10:07:36;;;;;;;;;26.67;21.00;;;;;15.04;49.97;100915.09;111503;255;39322;-51
2024/03/21 10:10:17;;;;;;;;;33.67;24.33;;;;;15.23;49.42;100905.88;111265;241;161636;-55
2024/03/21 10:12:53;;;;;;;;;25.00;21.00;;;;;15.10;49.64;100903.75;111538;255;39013;-54
2024/03/21 10:15:27;;;;;;;;;27.25;21.50;;;;;15.06;49.40;100903.10;111427;255;39484;-55
2024/03/21 10:18:05;;;;;;;;;23.75;19.00;;;;;14.95;49.50;100898.33;111434;241;160922;-61
2024/03/21 10:20:47;;;;;;;;;37.25;25.75;;;;;14.89;49.29;100900.29;111428;256;40847;-62
2024/03/21 10:23:25;;;;;;;;;29.25;23.75;;;;;14.80;50.13;100893.64;111449;255;161434;-60
2024/03/21 10:26:03;;;;;;;;;30.00;23.00;;;;;14.77;49.70;100892.96;111477;255;39905;-53
2024/03/21 10:28:43;;;;;;;;;33.50;25.00;;;;;14.51;49.96;100896.09;111432;241;161524;-57
2024/03/21 10:31:23;;;;;;;;;28.00;19.25;;;;;14.41;50.10;100886.55;111497;255;40513;-54
2024/03/21 10:34:04;;;;;;;;;29.25;23.00;;;;;14.30;49.65;100885.70;111389;241;161316;-52
2024/03/21 10:36:43;;;;;;;;;28.00;22.00;;;;;14.08;50.29;100884.30;111504;255;39329;-54
2024/03/21 10:39:24;;;;;;;;;28.50;22.00;;;;;13.95;50.47;100882.08;111464;255;40256;-55
2024/03/21 10:42:08;;;;;;;;;30.00;23.00;;;;;13.90;50.80;100881.39;111416;241;161303;-54
2024/03/21 10:44:52;;;;;;;;;24.33;19.67;;;;;13.71;50.92;100880.23;111485;255;40177;-52
2024/03/21 10:47:35;;;;;;;;;33.00;25.00;;;;;13.59;50.78;100878.98;111399;241;161680;-55
2024/03/21 10:50:28;;;;;;;;;28.50;22.50;;;;;13.54;50.90;100878.04;111531;255;40183;-56
2024/03/21 10:53:06;;;;;;;;;27.33;22.33;;;;;13.69;51.85;100870.02;111423;241;161555;-53
2024/03/21 10:55:53;;;;;;;;;25.00;20.50;;;;;13.92;51.97;100867.77;111468;255;39219;-53
2024/03/21 10:58:44;;;;;;;;;30.00;23.50;;;;;13.99;51.26;100871.25;111247;243;161523;-53
2024/03/21 11:01:38;;;;;;;;;27.50;22.00;;;;;13.94;51.73;100865.40;111435;255;39181;-52
2024/03/21 11:04:17;;;;;;;;;31.67;23.33;;;;;13.93;51.12;100866.86;111396;241;161731;-57
2024/03/21 11:07:01;;;;;;;;;30.75;22.50;;;;;13.85;51.54;100863.55;111543;255;40630;-57
2024/03/21 11:09:39;;;;;;;;;34.75;25.50;;;;;13.81;51.83;100864.61;111510;255;41045;-53
2024/03/21 11:12:17;;;;;;;;;26.00;20.00;;;;;14.03;52.08;100860.52;111567;255;39289;-53
2024/03/21 11:14:58;;;;;;;;;22.00;17.33;;;;;14.07;52.03;100857.91;111575;255;39510;-52
2024/03/21 11:17:40;;;;;;;;;29.00;22.50;;;;;14.17;52.18;100854.45;111489;241;161124;-53
2024/03/21 11:20:18;;;;;;;;;28.00;21.67;;;;;14.15;51.61;100852.44;111488;255;40019;-53
2024/03/21 11:22:56;;;;;;;;;28.67;20.00;;;;;14.16;51.71;100847.94;111389;241;161595;-56
2024/03/21 11:25:35;;;;;;;;;25.67;20.67;;;;;14.30;52.25;100853.84;111486;255;39731;-57
2024/03/21 11:28:20;;;;;;;;;35.00;25.75;;;;;14.32;51.28;100851.42;111399;241;161210;-54
2024/03/21 11:31:05;;;;;;;;;31.50;23.25;;;;;14.26;51.36;100850.08;111401;255;41204;-52
2024/03/21 11:33:48;;;;;;;;;27.00;21.00;;;;;14.24;51.49;100848.30;111515;255;39563;-56
2024/03/21 11:36:27;;;;;;;;;28.00;22.25;;;;;14.24;51.79;100840.02;111539;255;39058;-56
2024/03/21 11:39:10;;;;;;;;;26.33;20.33;;;;;14.23;51.26;100841.40;111486;255;39720;-56
2024/03/21 11:41:46;;;;;;;;;33.00;24.00;;;;;14.16;51.64;100834.69;111134;243;161110;-53
2024/03/21 11:44:21;;;;;;;;;28.25;23.00;;;;;14.21;51.66;100842.45;111494;255;40502;-55
2024/03/21 11:47:02;;;;;;;;;29.00;21.33;;;;;14.30;51.69;100841.02;111425;241;161343;-53
2024/03/21 11:49:44;;;;;;;;;28.67;22.00;;;;;14.22;51.57;100833.38;111606;255;39062;-55
2024/03/21 11:52:27;;;;;;;;;37.00;27.00;;;;;14.10;51.27;100832.48;111341;241;161588;-53
2024/03/21 11:55:05;;;;;;;;;23.50;19.00;;;;;13.99;50.76;100828.16;111538;255;40076;-54
2024/03/21 11:57:46;;;;;;;;;30.25;23.00;;;;;13.89;51.50;100822.55;111477;255;40201;-55
2024/03/21 12:00:24;;;;;;;;;27.00;21.50;;;;;13.93;51.61;100822.07;111418;255;40641;-55
2024/03/21 12:02:58;;;;;;;;;29.67;23.00;;;;;14.03;52.10;100822.51;111484;255;39367;-54
2024/03/21 12:05:32;;;;;;;;;29.00;22.00;;;;;14.23;51.50;100824.04;111407;241;161348;-53
2024/03/21 12:08:07;;;;;;;;;32.00;24.00;;;;;14.29;51.96;100820.58;111479;255;38993;-56